createdAt,value
2018-09-22T00:01:35.476Z,13.80
2018-09-22T00:04:04.800Z,13.80
2018-09-22T00:06:33.763Z,13.70
2018-09-22T00:09:02.669Z,13.70
2018-09-22T00:11:31.554Z,13.70
2018-09-22T00:14:01.063Z,13.70
2018-09-22T00:16:30.679Z,13.70
2018-09-22T00:19:00.644Z,13.50
2018-09-22T00:21:29.645Z,13.50
2018-09-22T00:23:58.669Z,13.70
2018-09-22T00:26:27.515Z,13.70
2018-09-22T00:28:56.611Z,13.50
2018-09-22T00:31:25.783Z,13.60
2018-09-22T00:33:54.793Z,13.60
2018-09-22T00:36:23.793Z,13.60
2018-09-22T00:38:52.752Z,13.60
2018-09-22T00:41:22.244Z,13.50
2018-09-22T00:43:51.893Z,13.60
2018-09-22T00:46:21.652Z,13.60
2018-09-22T00:48:50.646Z,13.50
2018-09-22T00:51:19.578Z,13.60
2018-09-22T00:53:48.649Z,13.50
2018-09-22T00:56:17.697Z,13.50
2018-09-22T00:58:47.738Z,13.50
2018-09-22T01:01:16.861Z,13.40
2018-09-22T01:03:45.892Z,13.40
2018-09-22T01:06:17.020Z,13.30
2018-09-22T01:08:46.425Z,13.30
2018-09-22T01:11:15.490Z,13.40
2018-09-22T01:13:44.457Z,13.50
2018-09-22T01:16:13.490Z,13.50
2018-09-22T01:18:42.452Z,13.40
2018-09-22T01:21:11.379Z,13.50
2018-09-22T01:23:40.316Z,13.30
2018-09-22T01:26:09.275Z,13.30
2018-09-22T01:28:38.253Z,13.30
2018-09-22T01:31:08.124Z,13.20
2018-09-22T01:33:37.080Z,13.20
2018-09-22T01:36:05.984Z,13.30
2018-09-22T01:38:34.904Z,13.30
2018-09-22T01:41:03.997Z,13.30
2018-09-22T01:43:32.913Z,13.20
2018-09-22T01:46:01.813Z,13.30
2018-09-22T01:48:30.827Z,13.30
2018-09-22T01:51:00.030Z,13.30
2018-09-22T01:53:29.161Z,13.30
2018-09-22T01:55:58.076Z,13.30
2018-09-22T01:58:27.036Z,13.30
2018-09-22T02:00:56.003Z,13.20
2018-09-22T02:03:25.521Z,13.20
2018-09-22T02:05:54.428Z,13.20
2018-09-22T02:08:23.349Z,13.20
2018-09-22T02:10:52.553Z,13.20
2018-09-22T02:13:21.643Z,13.20
2018-09-22T02:15:50.594Z,13.20
2018-09-22T02:18:19.451Z,13.20
2018-09-22T02:20:48.661Z,13.20
2018-09-22T02:23:17.637Z,13.20
2018-09-22T02:25:46.550Z,13.10
2018-09-22T02:28:15.467Z,13.20
2018-09-22T02:30:44.489Z,13.10
2018-09-22T02:33:14.207Z,13.00
2018-09-22T02:35:43.141Z,13.00
2018-09-22T02:38:12.166Z,13.00
2018-09-22T02:40:42.478Z,12.90
2018-09-22T02:43:11.276Z,12.80
2018-09-22T02:45:40.139Z,12.80
2018-09-22T02:48:09.040Z,12.70
2018-09-22T02:50:38.037Z,12.60
2018-09-22T02:53:06.853Z,12.60
2018-09-22T02:55:35.739Z,12.60
2018-09-22T02:58:04.820Z,12.60
2018-09-22T03:00:33.773Z,12.60
2018-09-22T03:03:02.817Z,12.60
2018-09-22T03:05:31.700Z,12.50
2018-09-22T03:08:00.989Z,12.50
2018-09-22T03:10:29.908Z,12.50
2018-09-22T03:12:59.312Z,12.50
2018-09-22T03:15:28.211Z,12.50
2018-09-22T03:17:56.935Z,12.40
2018-09-22T03:20:26.028Z,12.50
2018-09-22T03:22:55.107Z,12.40
2018-09-22T03:25:24.122Z,12.40
2018-09-22T03:27:53.004Z,12.40
2018-09-22T03:30:21.952Z,12.40
2018-09-22T03:32:50.986Z,12.40
2018-09-22T03:35:19.937Z,12.40
2018-09-22T03:37:48.831Z,12.40
2018-09-22T03:40:17.860Z,12.30
2018-09-22T03:42:46.728Z,12.30
2018-09-22T03:45:15.933Z,12.20
2018-09-22T03:47:44.780Z,12.20
2018-09-22T03:50:14.116Z,12.10
2018-09-22T03:52:43.039Z,12.10
2018-09-22T03:55:12.061Z,12.10
2018-09-22T03:57:40.888Z,12.00
2018-09-22T04:00:10.052Z,12.00
2018-09-22T04:02:39.051Z,12.00
2018-09-22T04:05:08.038Z,12.00
2018-09-22T04:07:37.147Z,12.00
2018-09-22T04:10:05.968Z,12.00
2018-09-22T04:12:34.872Z,12.00
2018-09-22T04:15:03.765Z,12.00
2018-09-22T04:17:32.667Z,12.00
2018-09-22T04:20:01.627Z,11.90
2018-09-22T04:22:30.448Z,11.90
2018-09-22T04:24:59.288Z,11.90
2018-09-22T04:27:28.096Z,12.00
2018-09-22T04:29:57.060Z,12.00
2018-09-22T04:32:25.948Z,11.90
2018-09-22T04:34:54.775Z,11.80
2018-09-22T04:37:25.681Z,11.80
2018-09-22T04:39:54.612Z,11.80
2018-09-22T04:42:23.528Z,11.70
2018-09-22T04:44:52.582Z,11.70
2018-09-22T04:47:21.426Z,11.80
2018-09-22T04:49:50.288Z,11.70
2018-09-22T04:52:19.230Z,11.80
2018-09-22T04:54:48.077Z,11.70
2018-09-22T04:57:17.159Z,11.80
2018-09-22T04:59:46.086Z,11.70
2018-09-22T05:02:14.976Z,11.70
2018-09-22T05:04:43.888Z,11.80
2018-09-22T05:07:12.743Z,11.80
2018-09-22T05:09:41.576Z,11.70
2018-09-22T05:12:10.529Z,11.70
2018-09-22T05:14:39.460Z,11.70
2018-09-22T05:17:08.298Z,11.70
2018-09-22T05:19:37.207Z,11.70
2018-09-22T05:22:06.191Z,11.70
2018-09-22T05:24:35.171Z,11.70
2018-09-22T05:27:04.068Z,11.70
2018-09-22T05:29:32.907Z,11.60
2018-09-22T05:32:01.936Z,11.50
2018-09-22T05:34:30.794Z,11.50
2018-09-22T05:36:59.640Z,11.50
2018-09-22T05:39:29.305Z,11.50
2018-09-22T05:41:58.137Z,11.40
2018-09-22T05:44:27.185Z,11.40
2018-09-22T05:46:58.251Z,11.40
2018-09-22T05:49:28.821Z,11.30
2018-09-22T05:51:58.678Z,11.30
2018-09-22T05:54:28.624Z,11.30
2018-09-22T05:56:57.553Z,11.30
2018-09-22T05:59:26.501Z,11.30
2018-09-22T06:01:55.350Z,11.40
2018-09-22T06:04:24.235Z,11.40
2018-09-22T06:06:53.040Z,11.40
2018-09-22T06:09:22.138Z,11.50
2018-09-22T06:11:51.011Z,11.50
2018-09-22T06:14:19.866Z,11.50
2018-09-22T06:16:58.855Z,11.50
2018-09-22T06:19:27.997Z,11.60
2018-09-22T06:21:56.860Z,11.60
2018-09-22T06:24:26.794Z,11.60
2018-09-22T06:26:57.653Z,11.70
2018-09-22T06:29:26.441Z,11.80
2018-09-22T06:31:55.303Z,11.80
2018-09-22T06:34:25.116Z,11.90
2018-09-22T06:36:53.956Z,11.90
2018-09-22T06:39:22.792Z,12.10
2018-09-22T06:41:51.639Z,12.20
2018-09-22T06:44:20.489Z,12.20
2018-09-22T06:46:49.308Z,12.20
2018-09-22T06:52:09.416Z,12.40
2018-09-22T06:54:38.287Z,12.60
2018-09-22T06:57:07.052Z,12.70
2018-09-22T06:59:35.845Z,12.60
2018-09-22T07:02:04.628Z,12.80
2018-09-22T07:04:33.456Z,12.90
2018-09-22T07:07:02.419Z,13.00
2018-09-22T07:09:31.339Z,13.10
2018-09-22T07:12:00.200Z,13.20
2018-09-22T07:17:44.007Z,13.30
2018-09-22T07:20:13.419Z,13.30
2018-09-22T07:22:48.352Z,13.40
2018-09-22T07:25:17.399Z,13.40
2018-09-22T07:27:46.343Z,13.50
2018-09-22T07:30:15.124Z,13.50
2018-09-22T07:32:44.064Z,13.50
2018-09-22T07:35:12.956Z,13.70
2018-09-22T07:37:41.807Z,13.80
2018-09-22T07:40:10.695Z,13.80
2018-09-22T07:42:39.543Z,13.90
2018-09-22T07:45:08.488Z,14.00
2018-09-22T07:47:37.322Z,14.00
2018-09-22T07:50:06.180Z,13.80
2018-09-22T07:52:35.100Z,13.90
2018-09-22T07:55:04.215Z,14.00
2018-09-22T07:57:33.045Z,14.00
2018-09-22T08:00:01.952Z,13.90
2018-09-22T08:02:30.770Z,14.00
2018-09-22T08:04:59.608Z,14.10
2018-09-22T08:07:28.420Z,14.10
2018-09-22T08:09:57.299Z,14.10
2018-09-22T08:12:26.186Z,14.10
2018-09-22T08:14:54.997Z,14.10
2018-09-22T08:17:23.992Z,14.20
2018-09-22T08:19:52.835Z,14.10
2018-09-22T08:22:21.695Z,14.20
2018-09-22T08:24:50.631Z,14.30
2018-09-22T08:27:19.448Z,14.30
2018-09-22T08:29:48.244Z,14.40
2018-09-22T08:32:17.107Z,14.40
2018-09-22T08:34:45.960Z,14.60
2018-09-22T08:37:14.939Z,14.60
2018-09-22T08:39:43.775Z,14.60
2018-09-22T08:42:12.735Z,14.70
2018-09-22T08:44:41.588Z,14.70
2018-09-22T08:47:10.469Z,14.70
2018-09-22T08:49:39.301Z,14.90
2018-09-22T08:52:08.229Z,15.00
2018-09-22T08:54:37.122Z,15.00
2018-09-22T08:57:06.074Z,15.10
2018-09-22T08:59:34.902Z,15.10
2018-09-22T09:02:03.872Z,15.10
2018-09-22T09:04:32.724Z,15.20
2018-09-22T09:07:01.623Z,15.30
2018-09-22T09:09:30.627Z,15.50
2018-09-22T09:11:59.607Z,15.50
2018-09-22T09:14:28.510Z,15.30
2018-09-22T09:16:57.372Z,15.30
2018-09-22T09:19:26.404Z,15.40
2018-09-22T09:21:55.687Z,15.50
2018-09-22T09:24:24.589Z,15.80
2018-09-22T09:26:53.615Z,16.00
2018-09-22T09:29:22.408Z,16.20
2018-09-22T09:31:51.255Z,16.20
2018-09-22T09:34:20.145Z,16.30
2018-09-22T09:36:49.096Z,16.50
2018-09-22T09:39:18.060Z,16.50
2018-09-22T09:41:46.976Z,16.50
2018-09-22T09:44:15.966Z,16.60
2018-09-22T09:46:45.008Z,16.90
2018-09-22T09:49:13.986Z,16.70
2018-09-22T09:51:42.866Z,16.90
2018-09-22T09:54:11.870Z,16.90
2018-09-22T09:56:40.944Z,17.00
2018-09-22T09:59:09.835Z,17.00
2018-09-22T10:01:38.715Z,17.10
2018-09-22T10:04:07.687Z,17.00
2018-09-22T10:06:36.640Z,17.00
2018-09-22T10:09:07.294Z,16.80
2018-09-22T10:11:36.244Z,16.80
2018-09-22T10:14:05.079Z,16.70
2018-09-22T10:16:33.945Z,16.60
2018-09-22T10:19:02.943Z,16.70
2018-09-22T10:21:31.790Z,16.80
2018-09-22T10:24:00.730Z,16.80
2018-09-22T10:26:29.704Z,16.80
2018-09-22T10:28:58.567Z,16.90
2018-09-22T10:31:27.414Z,16.70
2018-09-22T10:33:56.407Z,16.60
2018-09-22T10:36:25.286Z,16.70
2018-09-22T10:38:54.221Z,16.80
2018-09-22T10:41:23.048Z,16.90
2018-09-22T10:43:51.953Z,17.10
2018-09-22T10:46:20.862Z,17.10
2018-09-22T10:48:49.755Z,17.10
2018-09-22T10:51:18.770Z,17.20
2018-09-22T10:53:47.683Z,17.20
2018-09-22T10:56:16.573Z,17.30
2018-09-22T10:58:45.440Z,17.10
2018-09-22T11:01:14.623Z,17.20
2018-09-22T11:03:43.551Z,17.30
2018-09-22T11:06:12.988Z,17.20
2018-09-22T11:08:41.929Z,17.20
2018-09-22T11:11:10.908Z,17.30
2018-09-22T11:13:39.895Z,17.40
2018-09-22T11:16:08.740Z,17.40
2018-09-22T11:18:37.712Z,17.50
2018-09-22T11:21:06.572Z,17.70
2018-09-22T11:23:35.437Z,17.80
2018-09-22T11:26:04.435Z,17.80
2018-09-22T11:28:33.648Z,18.00
2018-09-22T11:31:02.481Z,18.20
2018-09-22T11:33:31.340Z,18.30
2018-09-22T11:36:00.213Z,18.40
2018-09-22T11:38:29.208Z,18.70
2018-09-22T11:40:57.915Z,18.70
2018-09-22T11:43:26.811Z,18.70
2018-09-22T11:45:55.682Z,18.60
2018-09-22T11:48:24.512Z,18.70
2018-09-22T11:50:53.528Z,19.00
2018-09-22T11:53:22.353Z,19.10
2018-09-22T11:55:52.150Z,19.10
2018-09-22T11:58:21.053Z,19.20
2018-09-22T12:00:49.953Z,19.40
2018-09-22T12:03:18.840Z,19.40
2018-09-22T12:05:47.779Z,19.50
2018-09-22T12:08:16.628Z,19.70
2018-09-22T12:10:45.486Z,19.80
2018-09-22T12:13:14.449Z,20.10
2018-09-22T12:15:43.267Z,20.00
2018-09-22T12:18:12.157Z,19.90
2018-09-22T12:20:41.031Z,19.60
2018-09-22T12:23:09.847Z,19.50
2018-09-22T12:25:38.791Z,19.50
2018-09-22T12:28:07.825Z,19.80
2018-09-22T12:30:36.656Z,20.00
2018-09-22T12:33:05.503Z,20.40
2018-09-22T12:35:35.038Z,20.50
2018-09-22T12:38:03.951Z,20.50
2018-09-22T12:40:32.853Z,20.60
2018-09-22T12:43:01.700Z,20.50
2018-09-22T12:45:30.594Z,20.20
2018-09-22T12:47:59.497Z,20.30
2018-09-22T12:50:28.972Z,20.30
2018-09-22T12:52:57.836Z,20.30
2018-09-22T12:55:26.697Z,20.30
2018-09-22T12:57:55.536Z,20.30
2018-09-22T13:00:24.464Z,20.20
2018-09-22T13:02:53.324Z,20.40
2018-09-22T13:05:22.212Z,20.40
2018-09-22T13:07:51.244Z,20.20
2018-09-22T13:10:20.251Z,20.20
2018-09-22T13:12:49.069Z,20.00
2018-09-22T13:15:17.880Z,20.20
2018-09-22T13:17:47.174Z,20.50
2018-09-22T13:20:16.159Z,20.30
2018-09-22T13:22:45.262Z,20.50
2018-09-22T13:26:05.175Z,20.50
2018-09-22T13:28:34.300Z,20.30
2018-09-22T13:31:04.842Z,20.30
2018-09-22T13:33:33.738Z,20.20
2018-09-22T13:36:02.700Z,20.50
2018-09-22T13:38:31.822Z,20.80
2018-09-22T13:41:00.853Z,20.90
2018-09-22T13:43:29.812Z,21.00
2018-09-22T13:45:58.703Z,21.00
2018-09-22T13:48:27.576Z,20.90
2018-09-22T13:50:57.147Z,21.30
2018-09-22T13:53:27.007Z,21.40
2018-09-22T13:55:55.875Z,21.40
2018-09-22T13:58:24.703Z,21.30
2018-09-22T14:00:53.559Z,21.10
2018-09-22T14:03:22.465Z,21.40
2018-09-22T14:05:51.304Z,21.20
2018-09-22T14:08:20.152Z,21.30
2018-09-22T14:10:49.068Z,21.10
2018-09-22T14:13:17.897Z,21.10
2018-09-22T14:15:46.754Z,21.00
2018-09-22T14:18:15.583Z,21.20
2018-09-22T14:20:44.477Z,21.30
2018-09-22T14:23:13.340Z,21.40
2018-09-22T14:25:42.176Z,21.50
2018-09-22T14:28:11.074Z,21.40
2018-09-22T14:30:39.880Z,21.40
2018-09-22T14:33:08.740Z,21.40
2018-09-22T14:35:37.588Z,21.30
2018-09-22T14:38:06.488Z,21.40
2018-09-22T14:40:35.320Z,21.10
2018-09-22T14:43:04.155Z,21.30
2018-09-22T14:45:33.048Z,21.30
2018-09-22T14:48:01.984Z,21.40
2018-09-22T14:50:30.977Z,21.20
2018-09-22T14:52:59.871Z,20.80
2018-09-22T14:55:28.740Z,20.80
2018-09-22T14:57:57.579Z,20.60
2018-09-22T15:00:26.413Z,20.40
2018-09-22T15:02:55.363Z,20.80
2018-09-22T15:05:24.234Z,20.70
2018-09-22T15:07:53.051Z,20.80
2018-09-22T15:10:21.935Z,20.50
2018-09-22T15:12:50.746Z,20.20
2018-09-22T15:15:19.542Z,20.20
2018-09-22T15:17:48.435Z,19.90
2018-09-22T15:20:18.364Z,19.80
2018-09-22T15:22:47.171Z,19.70
2018-09-22T15:25:16.286Z,19.60
2018-09-22T15:27:45.081Z,19.50
2018-09-22T15:30:13.912Z,19.20
2018-09-22T15:32:42.703Z,18.80
2018-09-22T15:35:11.622Z,18.70
2018-09-22T15:37:40.436Z,18.80
2018-09-22T15:40:09.248Z,18.80
2018-09-22T15:42:38.396Z,18.90
2018-09-22T15:45:07.716Z,18.80
2018-09-22T15:47:36.526Z,18.80
2018-09-22T15:50:05.391Z,18.80
2018-09-22T15:52:34.327Z,18.70
2018-09-22T15:55:03.180Z,18.60
2018-09-22T15:57:33.148Z,18.60
2018-09-22T16:00:01.978Z,18.60
2018-09-22T16:02:30.805Z,18.40
2018-09-22T16:04:59.631Z,18.30
2018-09-22T16:07:28.446Z,18.30
2018-09-22T16:09:57.249Z,18.20
2018-09-22T16:12:26.096Z,18.30
2018-09-22T16:14:54.889Z,18.20
2018-09-22T16:17:23.726Z,18.20
2018-09-22T16:19:52.531Z,18.20
2018-09-22T16:22:24.396Z,18.20
2018-09-22T16:24:53.308Z,18.10
2018-09-22T16:27:22.191Z,18.00
2018-09-22T16:29:51.084Z,18.00
2018-09-22T16:32:19.938Z,17.90
2018-09-22T16:34:48.750Z,18.00
2018-09-22T16:37:17.917Z,18.00
2018-09-22T16:39:46.733Z,18.00
2018-09-22T16:42:15.614Z,17.90
2018-09-22T16:44:44.543Z,17.80
2018-09-22T16:47:13.401Z,17.80
2018-09-22T16:49:42.273Z,17.80
2018-09-22T16:52:11.172Z,17.90
2018-09-22T16:54:40.020Z,17.80
2018-09-22T16:57:09.032Z,17.80
2018-09-22T16:59:37.872Z,17.80
2018-09-22T17:02:06.740Z,17.80
2018-09-22T17:04:35.596Z,17.70
2018-09-22T17:07:04.483Z,17.70
2018-09-22T17:09:33.477Z,17.60
2018-09-22T17:12:02.389Z,17.50
2018-09-22T17:14:31.247Z,17.40
2018-09-22T17:17:00.079Z,17.30
2018-09-22T17:19:28.982Z,17.20
2018-09-22T17:21:57.784Z,17.20
2018-09-22T17:24:26.628Z,17.10
2018-09-22T17:26:55.439Z,17.00
2018-09-22T17:29:24.282Z,16.90
2018-09-22T17:31:53.220Z,16.70
2018-09-22T17:34:22.110Z,16.60
2018-09-22T17:36:50.878Z,16.50
2018-09-22T17:39:19.796Z,16.40
2018-09-22T17:41:48.615Z,16.30
2018-09-22T17:44:17.461Z,16.20
2018-09-22T17:46:46.324Z,16.10
2018-09-22T17:49:15.152Z,15.90
2018-09-22T17:51:43.955Z,15.90
2018-09-22T17:54:12.908Z,15.80
2018-09-22T17:56:41.728Z,15.70
2018-09-22T17:59:10.620Z,15.70
2018-09-22T18:01:39.428Z,15.70
2018-09-22T18:04:08.302Z,15.60
2018-09-22T18:06:37.088Z,15.50
2018-09-22T18:09:07.569Z,15.50
2018-09-22T18:11:36.816Z,15.40
2018-09-22T18:14:06.579Z,15.40
2018-09-22T18:16:35.524Z,15.40
2018-09-22T18:19:04.320Z,15.40
2018-09-22T18:21:33.275Z,15.50
2018-09-22T18:24:02.188Z,15.40
2018-09-22T18:26:31.088Z,15.30
2018-09-22T18:28:59.886Z,15.40
2018-09-22T18:31:29.758Z,15.30
2018-09-22T18:33:58.613Z,15.30
2018-09-22T18:36:27.416Z,15.30
2018-09-22T18:38:56.280Z,15.30
2018-09-22T18:41:26.148Z,15.20
2018-09-22T18:43:56.048Z,15.20
2018-09-22T18:46:26.871Z,15.10
2018-09-22T18:48:55.689Z,15.10
2018-09-22T18:51:26.631Z,15.10
2018-09-22T18:53:55.464Z,15.00
2018-09-22T18:56:24.288Z,15.10
2018-09-22T18:59:09.527Z,15.10
2018-09-22T19:01:38.639Z,15.10
2018-09-22T19:04:11.297Z,15.00
2018-09-22T19:06:40.225Z,15.00
2018-09-22T19:09:09.997Z,15.10
2018-09-22T19:11:38.939Z,15.10
2018-09-22T19:14:43.431Z,15.00
2018-09-22T19:17:18.630Z,15.10
2018-09-22T19:19:57.627Z,14.90
2018-09-22T19:22:37.315Z,14.80
2018-09-22T19:25:10.890Z,14.80
2018-09-22T19:27:46.189Z,14.70
2018-09-22T19:30:19.163Z,14.60
2018-09-22T19:32:53.951Z,14.60
2018-09-22T19:35:28.383Z,14.50
2018-09-22T19:38:03.115Z,14.40
2018-09-22T19:40:51.768Z,14.30
2018-09-22T19:43:28.229Z,14.20
2018-09-22T19:46:00.485Z,14.10
2018-09-22T19:48:39.887Z,14.00
2018-09-22T19:51:11.076Z,13.90
2018-09-22T19:53:41.715Z,13.90
2018-09-22T19:56:10.844Z,13.90
2018-09-22T19:58:39.825Z,13.90
2018-09-22T20:01:09.155Z,13.90
2018-09-22T20:03:45.051Z,13.90
2018-09-22T20:06:15.172Z,13.90
2018-09-22T20:08:44.338Z,13.80
2018-09-22T20:11:13.981Z,13.70
2018-09-22T20:13:42.886Z,13.70
2018-09-22T20:16:11.764Z,13.60
2018-09-22T20:18:40.651Z,13.70
2018-09-22T20:21:09.518Z,13.60
2018-09-22T20:23:38.352Z,13.60
2018-09-22T20:26:08.833Z,13.70
2018-09-22T20:28:37.939Z,13.70
2018-09-22T20:31:07.089Z,13.70
2018-09-22T20:33:36.285Z,13.60
2018-09-22T20:36:05.582Z,13.60
2018-09-22T20:38:34.612Z,13.60
2018-09-22T20:41:03.884Z,13.60
2018-09-22T20:43:33.167Z,13.60
2018-09-22T20:46:03.375Z,13.70
2018-09-22T20:48:32.362Z,13.80
2018-09-22T20:51:01.667Z,13.70
2018-09-22T20:53:30.715Z,13.70
2018-09-22T20:56:00.069Z,13.80
2018-09-22T20:58:29.375Z,13.80
2018-09-22T21:00:58.385Z,13.70
2018-09-22T21:03:28.902Z,13.70
2018-09-22T21:06:04.961Z,13.80
2018-09-22T21:08:34.230Z,13.70
2018-09-22T21:11:03.585Z,13.70
2018-09-22T21:13:33.005Z,13.70
2018-09-22T21:16:10.568Z,13.70
2018-09-22T21:18:39.934Z,13.60
2018-09-22T21:21:09.185Z,13.60
2018-09-22T21:23:45.358Z,13.60
2018-09-22T21:26:15.340Z,13.60
2018-09-22T21:28:44.300Z,13.60
2018-09-22T21:32:16.578Z,13.60
2018-09-22T21:34:45.712Z,13.60
2018-09-22T21:37:14.516Z,13.60
2018-09-22T21:39:43.336Z,13.60
2018-09-22T21:42:12.244Z,13.50
2018-09-22T21:44:41.070Z,13.40
2018-09-22T21:47:10.040Z,13.40
2018-09-22T21:49:38.836Z,13.40
2018-09-22T21:52:07.784Z,13.50
2018-09-22T21:54:37.010Z,13.50
2018-09-22T21:57:05.838Z,13.50
2018-09-22T21:59:34.636Z,13.50
2018-09-22T22:02:03.572Z,13.50
2018-09-22T22:04:32.839Z,13.50
2018-09-22T22:07:02.343Z,13.50
2018-09-22T22:09:31.253Z,13.50
2018-09-22T22:12:00.075Z,13.50
2018-09-22T22:14:29.091Z,13.60
2018-09-22T22:16:57.959Z,13.60
2018-09-22T22:19:27.872Z,13.50
2018-09-22T22:21:56.679Z,13.50
2018-09-22T22:24:25.631Z,13.50
2018-09-22T22:26:54.589Z,13.50
2018-09-22T22:29:23.507Z,13.50
2018-09-22T22:31:52.396Z,13.50
2018-09-22T22:34:21.361Z,13.60
2018-09-22T22:36:50.195Z,13.60
2018-09-22T22:39:19.123Z,13.60
2018-09-22T22:41:47.931Z,13.70
2018-09-22T22:44:16.860Z,13.70
2018-09-22T22:46:45.779Z,13.60
2018-09-22T22:49:14.598Z,13.60
2018-09-22T22:51:43.496Z,13.70
2018-09-22T22:54:12.304Z,13.70
2018-09-22T22:56:41.208Z,13.70
2018-09-22T22:59:10.078Z,13.50
2018-09-22T23:01:38.961Z,13.50
2018-09-22T23:04:07.925Z,13.50
2018-09-22T23:06:36.840Z,13.40
2018-09-22T23:09:07.073Z,13.40
2018-09-22T23:11:35.916Z,13.30
2018-09-22T23:14:04.711Z,13.30
2018-09-22T23:16:33.551Z,13.30
2018-09-22T23:19:02.760Z,13.30
2018-09-22T23:21:31.587Z,13.20
2018-09-22T23:24:00.447Z,13.20
2018-09-22T23:26:29.344Z,13.10
2018-09-22T23:28:58.195Z,13.10
2018-09-22T23:31:27.032Z,13.10
2018-09-22T23:33:56.036Z,13.10
2018-09-22T23:36:24.989Z,13.10
2018-09-22T23:38:54.205Z,13.00
2018-09-22T23:41:24.873Z,13.00
2018-09-22T23:43:57.938Z,12.90
2018-09-22T23:46:27.234Z,13.00
2018-09-22T23:48:56.533Z,13.00
2018-09-22T23:51:26.707Z,13.00
2018-09-22T23:53:56.092Z,13.10
2018-09-22T23:56:26.806Z,13.10
2018-09-22T23:58:56.229Z,13.20
